Time;durP1;ratioP1;P1;durP2;ratioP2;P2;SDS_P1;SDS_P2;PMS_P1;PMS_P2;Temp;Humidity;BMP_temperature;BMP_pressure;BME280_temperature;BME280_humidity;BME280_pressure;Samples;Min_cycle;Max_cycle;Signal;HPM_P1;HPM_P2
2023/06/02 00:06:45;;;;;;;2.58;1.58;;;23.10;90.70;;;;;;20794498;28;20222;-69
2023/06/02 00:16:47;;;;;;;4.72;1.80;;;;;;;;;;20808951;28;20231;-69
2023/06/02 00:26:50;;;;;;;1.95;1.40;;;;;;;;;;20808865;28;20219;-69
2023/06/02 00:36:52;;;;;;;1.92;1.35;;;;;;;;;;20791358;28;20783;-70
2023/06/02 00:46:55;;;;;;;2.03;1.27;;;;;;;;;;20790524;28;20284;-69
2023/06/02 00:56:57;;;;;;;1.50;1.10;;;;;;;;;;20789993;28;20224;-69
2023/06/02 01:07:02;;;;;;;1.95;1.20;;;22.10;99.10;;;;;;20804672;28;20221;-69
2023/06/02 01:17:04;;;;;;;3.47;1.50;;;;;;;;;;20772832;28;20269;-70
2023/06/02 01:27:12;;;;;;;1.77;1.20;;;21.60;89.20;;;;;;20787589;28;20226;-70
2023/06/02 01:37:14;;;;;;;2.30;1.37;;;21.60;93.20;;;;;;20771165;28;20291;-69
2023/06/02 01:47:16;;;;;;;1.70;1.03;;;;;;;;;;20781812;28;20250;-70
2023/06/02 01:57:18;;;;;;;2.07;1.20;;;;;;;;;;20769904;28;20230;-69
2023/06/02 02:07:19;;;;;;;2.07;1.10;;;;;;;;;;20786175;28;20283;-69
2023/06/02 02:17:25;;;;;;;3.50;1.10;;;;;;;;;;20770340;28;20940;-69
2023/06/02 02:27:27;;;;;;;1.83;1.30;;;;;;;;;;20801829;28;20642;-70
2023/06/02 02:37:30;;;;;;;1.90;1.30;;;;;;;;;;20818086;28;20276;-69
2023/06/02 02:47:33;;;;;;;1.77;1.20;;;;;;;;;;20800255;28;20748;-69
2023/06/02 02:57:36;;;;;;;1.93;1.47;;;;;;;;;;20798646;28;20270;-69
2023/06/02 03:07:44;;;;;;;1.97;1.20;;;;;;;;;;20798851;28;20229;-69
2023/06/02 03:17:50;;;;;;;1.63;1.10;;;;;;;;;;20797793;28;20217;-69
2023/06/02 03:27:52;;;;;;;2.33;1.50;;;;;;;;;;20797668;28;20225;-70
2023/06/02 03:37:54;;;;;;;1.77;1.17;;;;;;;;;;20779869;28;20710;-69
2023/06/02 03:47:57;;;;;;;4.03;1.87;;;;;;;;;;20788165;28;20287;-70
2023/06/02 03:57:59;;;;;;;1.90;1.30;;;;;;;;;;20779095;28;20212;-69
2023/06/02 04:08:02;;;;;;;2.40;1.50;;;;;;;;;;20794185;28;20221;-70
2023/06/02 04:18:04;;;;;;;2.23;1.40;;;;;;;;;;20793357;28;20224;-70
2023/06/02 04:28:08;;;;;;;1.90;1.40;;;;;;;;;;20777150;28;20227;-69
2023/06/02 04:38:12;;;;;;;2.60;1.60;;;;;;;;;;20791958;28;20629;-69
2023/06/02 04:48:14;;;;;;;3.13;1.47;;;;;;;;;;20785098;28;20250;-70
2023/06/02 04:58:15;;;;;;;3.37;1.30;;;;;;;;;;20774726;28;20216;-69
2023/06/02 05:08:18;;;;;;;2.77;1.10;;;;;;;;;;20774541;28;20301;-69
2023/06/02 05:18:20;;;;;;;2.53;1.30;;;;;;;;;;20789705;28;20216;-69
2023/06/02 05:28:22;;;;;;;1.83;1.13;;;;;;;;;;20772607;28;20223;-69
2023/06/02 05:38:25;;;;;;;1.90;1.27;;;;;;;;;;20785799;28;20227;-70
2023/06/02 05:48:27;;;;;;;2.47;1.63;;;;;;;;;;20786004;28;20215;-70
2023/06/02 05:58:31;;;;;;;2.70;1.20;;;;;;;;;;20798937;28;20222;-69
2023/06/02 06:08:33;;;;;;;2.17;1.30;;;;;;;;;;20786564;28;20222;-69
2023/06/02 06:18:35;;;;;;;2.07;1.30;;;;;;;;;;20776547;28;20215;-69
2023/06/02 06:28:38;;;;;;;4.40;1.10;;;;;;;;;;20785468;28;20224;-69
2023/06/02 06:38:40;;;;;;;3.60;1.20;;;19.70;99.90;;;;;;20781848;28;20223;-70
2023/06/02 06:48:43;;;;;;;3.07;1.23;;;;;;;;;;20733779;28;20228;-70
2023/06/02 06:58:44;;;;;;;2.57;1.50;;;;;;;;;;20762712;28;20275;-70
2023/06/02 07:08:46;;;;;;;2.73;1.10;;;;;;;;;;20787557;28;20219;-70
2023/06/02 07:46:15;;;;;;;2.50;1.70;;;;;;;;;;20943443;22;20601;-81
2023/06/02 07:56:17;;;;;;;3.23;1.70;;;;;;;;;;20796685;28;20803;-82
2023/06/02 08:06:19;;;;;;;2.20;1.70;;;;;;;;;;20762667;28;20629;-82
2023/06/02 08:16:21;;;;;;;1.87;1.40;;;;;;;;;;20800359;28;20228;-81
2023/06/02 08:26:23;;;;;;;2.10;1.60;;;;;;;;;;20804164;28;20689;-82
2023/06/02 08:36:26;;;;;;;2.83;1.50;;;;;;;;;;20798220;28;20229;-82
2023/06/02 08:46:28;;;;;;;3.50;1.60;;;;;;;;;;20696687;28;20643;-82
2023/06/02 08:56:30;;;;;;;4.40;1.57;;;;;;;;;;20713177;28;20269;-82
2023/06/02 09:06:31;;;;;;;2.17;1.27;;;;;;;;;;20728496;28;20231;-82
2023/06/02 09:16:37;;;;;;;3.07;1.33;;;;;;;;;;20716185;28;20262;-82
2023/06/02 09:26:39;;;;;;;3.93;1.50;;;;;;;;;;20752293;28;20266;-83
2023/06/02 09:36:40;;;;;;;3.43;1.63;;;;;;;;;;20708071;28;20227;-83
2023/06/02 09:46:43;;;;;;;1.60;1.20;;;;;;;;;;20708640;28;20212;-83
2023/06/02 09:56:46;;;;;;;3.43;1.67;;;;;;;;;;20725253;28;20683;-82
2023/06/02 10:06:48;;;;;;;3.13;1.43;;;;;;;;;;20702507;28;20611;-83
2023/06/02 10:17:08;;;;;;;2.67;1.40;;;;;;;;;;20741594;28;20768;-83
2023/06/02 10:27:19;;;;;;;4.87;1.77;;;;;;;;;;20750762;28;20215;-82
2023/06/02 10:37:21;;;;;;;2.53;1.27;;;;;;;;;;20746956;28;20231;-82
2023/06/02 10:47:23;;;;;;;1.75;1.08;;;;;;;;;;20664956;28;20236;-82
2023/06/02 10:57:43;;;;;;;3.17;1.45;;;;;;;;;;20713224;28;20225;-83
2023/06/02 11:08:23;;;;;;;2.67;1.60;;;24.20;87.30;;;;;;20762866;28;20933;-83
2023/06/02 11:18:33;;;;;;;1.88;1.23;;;;;;;;;;20660145;28;20222;-83
2023/06/02 11:28:35;;;;;;;2.00;1.10;;;;;;;;;;20679486;28;20594;-82
2023/06/02 11:38:38;;;;;;;1.80;1.13;;;24.90;86.80;;;;;;20685335;28;20289;-84
2023/06/02 11:48:40;;;;;;;1.80;1.20;;;;;;;;;;20623204;28;20280;-82
2023/06/02 11:58:45;;;;;;;3.45;1.23;;;;;;;;;;20680735;28;20222;-83
2023/06/02 12:08:47;;;;;;;1.45;0.90;;;;;;;;;;20733921;28;20285;-82
2023/06/02 12:18:53;;;;;;;2.42;1.00;;;;;;;;;;20731113;28;20801;-83
2023/06/02 12:28:56;;;;;;;1.80;0.95;;;;;;;;;;20735589;28;20213;-82
2023/06/02 12:39:00;;;;;;;2.42;1.00;;;;;;;;;;20753932;28;20241;-83
2023/06/02 12:49:03;;;;;;;1.92;0.75;;;;;;;;;;20640534;28;20581;-84
2023/06/02 12:59:08;;;;;;;3.53;0.90;;;;;;;;;;20739518;28;20228;-84
2023/06/02 13:09:10;;;;;;;1.80;0.70;;;25.80;79.00;;;;;;20782996;28;20310;-83
2023/06/02 13:19:12;;;;;;;2.15;0.80;;;;;;;;;;20715461;28;20224;-83
2023/06/02 13:29:14;;;;;;;1.73;0.70;;;;;;;;;;20735651;28;20211;-83
2023/06/02 13:39:16;;;;;;;1.23;0.77;;;;;;;;;;20693776;28;20332;-83
2023/06/02 13:49:20;;;;;;;2.05;0.82;;;;;;;;;;20700037;28;20241;-83
2023/06/02 13:59:22;;;;;;;2.38;0.70;;;;;;;;;;20654088;28;20300;-83
2023/06/02 14:09:24;;;;;;;3.80;0.90;;;;;;;;;;20636502;28;20591;-83
2023/06/02 14:19:26;;;;;;;1.40;0.80;;;;;;;;;;20653330;28;20229;-84
2023/06/02 14:29:27;;;;;;;3.15;1.08;;;;;;;;;;20674715;28;20253;-83
2023/06/02 14:39:29;;;;;;;2.58;0.73;;;;;;;;;;20711569;28;20296;-84
2023/06/02 14:49:31;;;;;;;2.55;0.77;;;;;;;;;;20708735;28;20238;-83
2023/06/02 14:59:33;;;;;;;2.53;0.60;;;;;;;;;;20633328;28;20242;-83
2023/06/02 15:09:35;;;;;;;1.30;0.60;;;;;;;;;;20702908;28;20233;-83
2023/06/02 15:19:37;;;;;;;1.83;0.88;;;;;;;;;;20745474;28;20238;-83
2023/06/02 15:29:39;;;;;;;1.58;0.85;;;;;;;;;;20728950;28;20217;-82
2023/06/02 15:39:41;;;;;;;1.40;0.70;;;;;;;;;;20703577;28;20276;-82
2023/06/02 15:49:43;;;;;;;1.70;0.70;;;;;;;;;;20722070;28;20774;-83
2023/06/02 15:59:44;;;;;;;2.58;0.90;;;26.70;73.40;;;;;;20756841;28;20272;-82
2023/06/02 16:09:46;;;;;;;2.75;0.82;;;;;;;;;;20754931;28;20230;-82
2023/06/02 16:19:48;;;;;;;2.65;0.85;;;;;;;;;;20658000;28;20321;-82
2023/06/02 16:29:50;;;;;;;1.33;0.77;;;;;;;;;;20685674;28;20291;-82
2023/06/02 16:39:52;;;;;;;1.63;0.98;;;;;;;;;;20741298;28;20233;-82
2023/06/02 16:49:53;;;;;;;1.73;0.70;;;;;;;;;;20754071;28;20303;-82
2023/06/02 16:59:55;;;;;;;1.08;0.63;;;;;;;;;;20721564;28;20228;-82
2023/06/02 17:09:57;;;;;;;3.33;0.80;;;;;;;;;;20754289;28;20220;-82
2023/06/02 17:19:59;;;;;;;3.45;0.85;;;;;;;;;;20721179;28;20233;-82
2023/06/02 17:30:01;;;;;;;3.28;0.93;;;;;;;;;;20753963;28;20213;-82
2023/06/02 17:40:04;;;;;;;2.15;0.73;;;;;;;;;;20734069;28;20236;-82
2023/06/02 17:50:06;;;;;;;3.30;0.98;;;;;;;;;;20706832;28;20287;-81
2023/06/02 18:00:09;;;;;;;1.83;0.70;;;;;;;;;;20734732;28;20222;-82
2023/06/02 18:10:11;;;;;;;2.00;0.73;;;;;;;;;;20733316;28;20220;-82
2023/06/02 18:20:13;;;;;;;2.70;0.90;;;;;;;;;;20733622;28;20284;-82
2023/06/02 18:30:15;;;;;;;4.25;1.00;;;;;;;;;;20748234;28;20226;-81
2023/06/02 18:40:16;;;;;;;1.63;0.70;;;;;;;;;;20749046;28;20235;-82
2023/06/02 18:50:18;;;;;;;1.52;0.80;;;;;;;;;;20747557;28;20225;-82
2023/06/02 19:00:20;;;;;;;1.65;0.70;;;;;;;;;;20733228;28;20284;-82
2023/06/02 19:10:22;;;;;;;0.98;0.50;;;;;;;;;;20750106;28;20654;-81
2023/06/02 19:20:24;;;;;;;2.17;1.00;;;;;;;;;;20735962;28;20235;-81
2023/06/02 19:30:25;;;;;;;1.80;0.77;;;;;;;;;;20700638;28;20223;-80
2023/06/02 19:40:27;;;;;;;1.77;0.80;;;;;;;;;;20728576;28;20230;-80
2023/06/02 19:50:29;;;;;;;2.10;0.90;;;;;;;;;;20730694;28;20232;-80
2023/06/02 20:00:30;;;;;;;1.08;0.68;;;;;;;;;;20777743;28;20293;-80
2023/06/02 20:10:32;;;;;;;3.22;1.02;;;;;;;;;;20755899;28;20687;-81
2023/06/02 20:20:35;;;;;;;3.28;1.10;;;;;;;;;;20757863;28;20278;-80
2023/06/02 20:30:37;;;;;;;1.65;1.02;;;;;;;;;;20716306;28;20209;-82
2023/06/02 20:40:38;;;;;;;2.08;0.95;;;;;;;;;;20751275;28;20230;-81
2023/06/02 20:50:40;;;;;;;1.65;0.90;;;;;;;;;;20732333;28;20331;-81
2023/06/02 21:00:42;;;;;;;1.70;1.00;;;;;;;;;;20759843;28;20236;-81
2023/06/02 21:10:43;;;;;;;4.40;1.10;;;;;;;;;;20715516;28;20264;-81
2023/06/02 21:20:45;;;;;;;2.30;1.10;;;;;;;;;;20716914;28;20232;-81
2023/06/02 21:30:47;;;;;;;2.65;0.88;;;;;;;;;;20760924;28;20647;-81
2023/06/02 21:40:48;;;;;;;4.80;1.05;;;;;;;;;;20689556;28;20300;-81
2023/06/02 21:50:50;;;;;;;3.92;1.10;;;;;;;;;;20692287;28;20238;-81
2023/06/02 22:00:51;;;;;;;1.63;0.80;;;;;;;;;;20744093;28;20270;-81
2023/06/02 22:10:59;;;;;;;3.30;1.00;;;;;;;;;;20750655;28;20778;-81
2023/06/02 22:21:01;;;;;;;1.83;0.70;;;;;;;;;;20715618;28;20242;-81
2023/06/02 22:31:03;;;;;;;1.47;1.00;;;;;;;;;;20699650;28;20220;-81
2023/06/02 22:41:04;;;;;;;1.87;1.07;;;;;;;;;;20675673;28;20325;-81
2023/06/02 22:51:06;;;;;;;1.13;0.80;;;;;;;;;;20706900;28;20327;-81
2023/06/02 23:01:08;;;;;;;1.13;0.80;;;;;;;;;;20700135;28;20587;-81
2023/06/02 23:11:09;;;;;;;2.03;1.00;;;;;;;;;;20642018;28;20236;-81
2023/06/02 23:21:11;;;;;;;2.57;0.90;;;;;;;;;;20651873;28;20266;-81
2023/06/02 23:31:12;;;;;;;1.97;0.93;;;;;;;;;;20682405;28;20226;-81
2023/06/02 23:41:14;;;;;;;2.13;1.07;;;;;;;;;;20702406;28;20247;-81
2023/06/02 23:51:16;;;;;;;1.23;0.73;;;;;;;;;;20735532;28;20234;-81
